Time;durP1;ratioP1;P1;durP2;ratioP2;P2;SDS_P1;SDS_P2;PMS_P1;PMS_P2;Temp;Humidity;BMP_temperature;BMP_pressure;BME280_temperature;BME280_humidity;BME280_pressure;Samples;Min_cycle;Max_cycle;Signal;HPM_P1;HPM_P2
2023/08/25 00:02:08;;;;;;;;;;;19.10;99.90;;;;;;5019717;28;20312;-78
2023/08/25 00:04:34;;;;;;;;;;;19.10;99.90;;;;;;5020605;28;19952;-78
2023/08/25 00:06:59;;;;;;;;;;;19.00;99.90;;;;;;5054571;28;20388;-78
2023/08/25 00:09:25;;;;;;;;;;;19.00;99.90;;;;;;5037444;28;19940;-78
2023/08/25 00:11:50;;;;;;;;;;;19.00;99.90;;;;;;5021830;28;19962;-78
2023/08/25 00:14:16;;;;;;;;;;;19.00;99.90;;;;;;5049504;28;19929;-78
2023/08/25 00:16:42;;;;;;;;;;;18.90;99.90;;;;;;5035513;28;19967;-79
2023/08/25 00:19:07;;;;;;;;;;;18.90;99.90;;;;;;5004616;28;19940;-79
2023/08/25 00:21:33;;;;;;;;;;;18.90;99.90;;;;;;5033200;28;19929;-79
2023/08/25 00:23:58;;;;;;;;;;;18.90;99.90;;;;;;5049363;28;20375;-79
2023/08/25 00:26:24;;;;;;;;;;;18.90;99.90;;;;;;5038035;28;20517;-79
2023/08/25 00:28:49;;;;;;;;;;;18.90;99.90;;;;;;5027368;28;19925;-79
2023/08/25 00:31:17;;;;;;;;;;;18.90;99.90;;;;;;5046526;28;20209;-79
2023/08/25 00:33:49;;;;;;;;;;;18.90;99.90;;;;;;5039358;28;19948;-79
2023/08/25 00:36:15;;;;;;;;;;;18.90;99.90;;;;;;5071112;28;19932;-79
2023/08/25 00:38:40;;;;;;;;;;;18.90;99.90;;;;;;5038012;28;20007;-79
2023/08/25 00:41:06;;;;;;;;;;;18.90;99.90;;;;;;5038203;28;19937;-79
2023/08/25 00:43:33;;;;;;;;;;;18.90;99.90;;;;;;5037964;28;19929;-79
2023/08/25 00:45:59;;;;;;;;;;;19.00;99.90;;;;;;5020232;28;19972;-80
2023/08/25 00:48:25;;;;;;;;;;;19.00;99.90;;;;;;5049436;28;19999;-79
2023/08/25 00:50:51;;;;;;;;;;;19.10;99.90;;;;;;5017028;28;19925;-79
2023/08/25 00:53:17;;;;;;;;;;;19.10;99.90;;;;;;5033776;28;19932;-79
2023/08/25 00:55:42;;;;;;;;;;;19.10;99.90;;;;;;5048201;28;19965;-79
2023/08/25 00:58:09;;;;;;;;;;;19.10;99.90;;;;;;5033473;28;19932;-79
2023/08/25 01:00:35;;;;;;;;;;;19.10;99.90;;;;;;5036834;28;19932;-79
2023/08/25 01:03:01;;;;;;;;;;;19.20;99.90;;;;;;5065788;28;19925;-79
2023/08/25 01:05:26;;;;;;;;;;;19.10;99.90;;;;;;5064761;28;19976;-79
2023/08/25 01:07:52;;;;;;;;;;;19.10;99.90;;;;;;5018448;28;19929;-79
2023/08/25 01:10:24;;;;;;;;;;;19.20;99.90;;;;;;5031623;28;19933;-79
2023/08/25 01:13:05;;;;;;;;;;;19.20;99.90;;;;;;5035557;28;19929;-79
2023/08/25 01:15:32;;;;;;;;;;;19.20;99.90;;;;;;5033535;28;19932;-79
2023/08/25 01:18:12;;;;;;;;;;;19.20;99.90;;;;;;5029855;28;19925;-79
2023/08/25 01:20:38;;;;;;;;;;;19.20;99.90;;;;;;5048000;28;19925;-79
2023/08/25 01:23:19;;;;;;;;;;;19.20;99.90;;;;;;5038190;28;19925;-79
2023/08/25 01:25:48;;;;;;;;;;;19.20;99.90;;;;;;5046101;28;20009;-79
2023/08/25 01:28:14;;;;;;;;;;;19.30;99.90;;;;;;5026130;28;19946;-79
2023/08/25 01:30:39;;;;;;;;;;;19.30;99.90;;;;;;5069849;28;20645;-79
2023/08/25 01:33:05;;;;;;;;;;;19.30;99.90;;;;;;5005327;28;19925;-79
2023/08/25 01:35:43;;;;;;;;;;;19.30;99.90;;;;;;5036764;28;19933;-79
2023/08/25 01:38:30;;;;;;;;;;;19.30;99.90;;;;;;5036180;28;20368;-79
2023/08/25 01:40:56;;;;;;;;;;;19.30;99.90;;;;;;5036931;28;19952;-79
2023/08/25 01:43:23;;;;;;;;;;;19.30;99.90;;;;;;5041035;28;20534;-79
2023/08/25 01:45:50;;;;;;;;;;;19.30;99.90;;;;;;5025713;28;19980;-79
2023/08/25 01:48:16;;;;;;;;;;;19.30;99.90;;;;;;5035424;28;19980;-78
2023/08/25 01:50:42;;;;;;;;;;;19.30;99.90;;;;;;5035078;28;20289;-79
2023/08/25 01:53:08;;;;;;;;;;;19.30;99.90;;;;;;5037440;28;19933;-78
2023/08/25 01:55:34;;;;;;;;;;;19.30;99.90;;;;;;5021992;28;20024;-78
2023/08/25 01:58:00;;;;;;;;;;;19.30;99.90;;;;;;5066665;28;19928;-78
2023/08/25 02:00:25;;;;;;;;;;;19.20;99.90;;;;;;5037249;28;19925;-79
2023/08/25 02:02:51;;;;;;;;;;;19.20;99.90;;;;;;5038472;28;19951;-79
2023/08/25 02:05:16;;;;;;;;;;;19.20;99.90;;;;;;5019581;28;20527;-79
2023/08/25 02:07:42;;;;;;;;;;;19.10;99.90;;;;;;5018725;28;19933;-79
2023/08/25 02:10:07;;;;;;;;;;;19.00;99.90;;;;;;5003578;28;20400;-78
2023/08/25 02:12:33;;;;;;;;;;;19.10;99.90;;;;;;5020139;28;19925;-79
2023/08/25 02:14:59;;;;;;;;;;;19.10;99.90;;;;;;5040878;28;19929;-78
2023/08/25 02:17:24;;;;;;;;;;;19.20;99.90;;;;;;5015642;28;19929;-79
2023/08/25 02:19:50;;;;;;;;;;;19.10;99.90;;;;;;5004994;28;20399;-79
2023/08/25 02:22:16;;;;;;;;;;;19.10;99.90;;;;;;5034238;28;19925;-79
2023/08/25 02:24:41;;;;;;;;;;;19.10;99.90;;;;;;5006252;28;19980;-78
2023/08/25 02:27:07;;;;;;;;;;;19.10;99.90;;;;;;5036643;28;19929;-78
2023/08/25 02:29:32;;;;;;;;;;;19.00;99.90;;;;;;5035569;28;19989;-78
2023/08/25 02:31:58;;;;;;;;;;;19.00;99.90;;;;;;5020206;28;19929;-79
2023/08/25 02:34:23;;;;;;;;;;;19.00;99.90;;;;;;5022941;28;19925;-79
2023/08/25 02:36:49;;;;;;;;;;;18.90;99.90;;;;;;5051472;28;19960;-79
2023/08/25 02:39:15;;;;;;;;;;;18.90;99.90;;;;;;5033632;28;19925;-79
2023/08/25 02:41:40;;;;;;;;;;;18.80;99.90;;;;;;5033503;28;19925;-79
2023/08/25 02:44:06;;;;;;;;;;;18.90;99.90;;;;;;5000668;28;19931;-79
2023/08/25 02:46:31;;;;;;;;;;;18.70;99.90;;;;;;5007212;28;19929;-79
2023/08/25 02:48:57;;;;;;;;;;;18.70;99.90;;;;;;5037659;28;19925;-79
2023/08/25 02:51:22;;;;;;;;;;;18.70;99.90;;;;;;5020081;28;19948;-78
2023/08/25 02:53:48;;;;;;;;;;;18.70;99.90;;;;;;5034135;28;20000;-79
2023/08/25 02:56:13;;;;;;;;;;;18.60;99.90;;;;;;5005254;28;19929;-79
2023/08/25 02:58:39;;;;;;;;;;;18.60;99.90;;;;;;5000706;28;19952;-79
2023/08/25 03:01:11;;;;;;;;;;;18.60;99.90;;;;;;5022003;28;19925;-79
2023/08/25 03:03:37;;;;;;;;;;;18.60;99.90;;;;;;5021668;28;19935;-79
2023/08/25 03:06:02;;;;;;;;;;;18.60;99.90;;;;;;5040605;28;19960;-79
2023/08/25 03:08:28;;;;;;;;;;;18.50;99.90;;;;;;5038678;28;20024;-79
2023/08/25 03:10:54;;;;;;;;;;;18.50;99.90;;;;;;5055125;28;19926;-79
2023/08/25 03:13:19;;;;;;;;;;;18.50;99.90;;;;;;5039735;28;19925;-79
2023/08/25 03:15:48;;;;;;;;;;;18.40;99.90;;;;;;5055118;28;19929;-79
2023/08/25 03:18:16;;;;;;;;;;;18.40;99.90;;;;;;5038338;28;19935;-79
2023/08/25 03:20:42;;;;;;;;;;;18.40;99.90;;;;;;5040295;28;20427;-79
2023/08/25 03:23:07;;;;;;;;;;;18.40;99.90;;;;;;5001023;28;19948;-79
2023/08/25 03:25:36;;;;;;;;;;;18.40;99.90;;;;;;5018245;28;20004;-80
2023/08/25 03:28:02;;;;;;;;;;;18.30;99.90;;;;;;5018177;28;19940;-79
2023/08/25 03:30:28;;;;;;;;;;;18.30;99.90;;;;;;5068512;28;19929;-79
2023/08/25 03:32:53;;;;;;;;;;;18.30;99.90;;;;;;5070409;28;19947;-79
2023/08/25 03:35:19;;;;;;;;;;;18.30;99.90;;;;;;5017934;28;21195;-79
2023/08/25 03:37:45;;;;;;;;;;;18.30;99.90;;;;;;5049229;28;19929;-79
2023/08/25 03:40:10;;;;;;;;;;;18.30;99.90;;;;;;5053871;28;19948;-80
2023/08/25 03:42:36;;;;;;;;;;;18.20;99.90;;;;;;5017120;28;19933;-79
2023/08/25 03:45:02;;;;;;;;;;;18.30;99.90;;;;;;5007100;28;19955;-79
2023/08/25 03:47:27;;;;;;;;;;;18.30;99.90;;;;;;5066842;28;19987;-79
2023/08/25 03:49:53;;;;;;;;;;;18.30;99.90;;;;;;5018752;28;20000;-80
2023/08/25 03:52:18;;;;;;;;;;;18.30;99.90;;;;;;5032712;28;20300;-79
2023/08/25 03:54:44;;;;;;;;;;;18.30;99.90;;;;;;5034012;28;19932;-80
2023/08/25 03:57:10;;;;;;;;;;;18.30;99.90;;;;;;5032801;28;19929;-79
2023/08/25 03:59:36;;;;;;;;;;;18.20;99.90;;;;;;5020088;28;19933;-79
2023/08/25 04:02:03;;;;;;;;;;;18.20;99.90;;;;;;5065380;28;19925;-79
2023/08/25 04:04:31;;;;;;;;;;;18.20;99.90;;;;;;5033495;28;19936;-79
2023/08/25 04:06:57;;;;;;;;;;;18.20;99.90;;;;;;5060916;28;19961;-79
2023/08/25 04:09:22;;;;;;;;;;;18.20;99.90;;;;;;5033794;28;19933;-79
2023/08/25 04:11:48;;;;;;;;;;;18.20;99.90;;;;;;5019469;28;19932;-80
2023/08/25 04:14:14;;;;;;;;;;;18.10;99.90;;;;;;5031300;28;19937;-80
2023/08/25 04:16:40;;;;;;;;;;;18.10;99.90;;;;;;5064801;28;19926;-80
2023/08/25 04:19:05;;;;;;;;;;;18.00;99.90;;;;;;5003303;28;19925;-80
2023/08/25 04:21:31;;;;;;;;;;;18.00;99.90;;;;;;5037184;28;20036;-80
2023/08/25 04:23:56;;;;;;;;;;;18.00;99.90;;;;;;4998601;28;19929;-80
2023/08/25 04:26:22;;;;;;;;;;;18.00;99.90;;;;;;5016672;28;19929;-79
2023/08/25 04:28:48;;;;;;;;;;;17.90;99.90;;;;;;5037746;28;19929;-80
2023/08/25 04:31:13;;;;;;;;;;;17.90;99.90;;;;;;5051288;28;19928;-80
2023/08/25 04:33:39;;;;;;;;;;;17.90;99.90;;;;;;5026156;28;19968;-80
2023/08/25 04:36:04;;;;;;;;;;;17.90;99.90;;;;;;5019838;28;19960;-80
2023/08/25 04:38:30;;;;;;;;;;;17.90;99.90;;;;;;5015119;28;19925;-80
2023/08/25 04:40:55;;;;;;;;;;;17.90;99.90;;;;;;5019160;28;19964;-80
2023/08/25 04:43:21;;;;;;;;;;;17.90;99.90;;;;;;5012693;28;19929;-80
2023/08/25 04:45:47;;;;;;;;;;;17.90;99.90;;;;;;5016651;28;20016;-80
2023/08/25 04:48:12;;;;;;;;;;;17.90;99.90;;;;;;5033159;28;20414;-80
2023/08/25 04:50:38;;;;;;;;;;;17.90;99.90;;;;;;5030365;28;19925;-79
2023/08/25 04:53:03;;;;;;;;;;;17.90;99.90;;;;;;5031247;28;19929;-80
2023/08/25 04:55:29;;;;;;;;;;;17.90;99.90;;;;;;5036512;28;19928;-80
2023/08/25 04:57:55;;;;;;;;;;;17.90;99.90;;;;;;5050158;28;19929;-80
2023/08/25 05:00:21;;;;;;;;;;;18.00;99.90;;;;;;5017377;28;20000;-80
2023/08/25 05:02:48;;;;;;;;;;;18.00;99.90;;;;;;5023700;28;19956;-80
2023/08/25 05:05:16;;;;;;;;;;;18.10;99.90;;;;;;5040937;28;19948;-80
2023/08/25 05:07:42;;;;;;;;;;;18.10;99.90;;;;;;5019995;28;20497;-80
2023/08/25 05:10:09;;;;;;;;;;;18.10;99.90;;;;;;5037227;28;19933;-80
2023/08/25 05:12:34;;;;;;;;;;;18.20;99.90;;;;;;5069554;28;19925;-80
2023/08/25 05:15:00;;;;;;;;;;;18.20;99.90;;;;;;5023501;28;19952;-80
2023/08/25 05:17:26;;;;;;;;;;;18.20;99.90;;;;;;5011400;28;20360;-80
2023/08/25 05:19:52;;;;;;;;;;;18.20;99.90;;;;;;5035487;28;19940;-80
2023/08/25 05:22:18;;;;;;;;;;;18.30;99.90;;;;;;5021299;28;19925;-80
2023/08/25 05:24:43;;;;;;;;;;;18.30;99.90;;;;;;5039765;28;19966;-80
2023/08/25 05:27:09;;;;;;;;;;;18.40;99.90;;;;;;5021709;28;19968;-80
2023/08/25 05:29:35;;;;;;;;;;;18.40;99.90;;;;;;5018782;28;20507;-80
2023/08/25 05:32:00;;;;;;;;;;;18.40;99.90;;;;;;5053663;28;19925;-80
2023/08/25 05:34:26;;;;;;;;;;;18.50;99.90;;;;;;5052755;28;20274;-80
2023/08/25 05:36:52;;;;;;;;;;;18.50;99.90;;;;;;5044610;28;19933;-80
2023/08/25 05:39:20;;;;;;;;;;;18.60;99.90;;;;;;5021216;28;19985;-80
2023/08/25 05:41:46;;;;;;;;;;;18.50;99.90;;;;;;5037279;28;19929;-80
2023/08/25 05:44:12;;;;;;;;;;;18.60;99.90;;;;;;5070655;28;20473;-80
2023/08/25 05:46:38;;;;;;;;;;;18.60;99.90;;;;;;5043404;28;19931;-80
2023/08/25 05:49:04;;;;;;;;;;;18.70;99.90;;;;;;5020918;28;20520;-80
2023/08/25 05:51:29;;;;;;;;;;;18.80;99.90;;;;;;5050635;28;19925;-80
2023/08/25 05:53:55;;;;;;;;;;;18.80;99.90;;;;;;5036580;28;19925;-80
2023/08/25 05:56:20;;;;;;;;;;;18.90;99.90;;;;;;5040109;28;19929;-80
2023/08/25 05:58:46;;;;;;;;;;;18.90;99.90;;;;;;5018395;28;19933;-80
2023/08/25 06:01:12;;;;;;;;;;;18.90;99.90;;;;;;5034436;28;19935;-80
2023/08/25 06:03:37;;;;;;;;;;;19.00;99.90;;;;;;5023211;28;19979;-80
2023/08/25 06:06:03;;;;;;;;;;;19.00;99.90;;;;;;5004668;28;19932;-79
2023/08/25 06:08:30;;;;;;;;;;;19.10;99.90;;;;;;5028556;28;20211;-80
2023/08/25 06:10:55;;;;;;;;;;;19.10;99.90;;;;;;5052161;28;19980;-80
2023/08/25 06:13:21;;;;;;;;;;;19.10;99.90;;;;;;5019123;28;19929;-80
2023/08/25 06:15:48;;;;;;;;;;;19.10;99.90;;;;;;5065772;28;19925;-80
2023/08/25 06:18:14;;;;;;;;;;;19.20;99.90;;;;;;5067395;28;19928;-79
2023/08/25 06:20:40;;;;;;;;;;;19.30;99.90;;;;;;5051651;28;19948;-80
2023/08/25 06:23:06;;;;;;;;;;;19.30;99.90;;;;;;5017892;28;19925;-79
2023/08/25 06:25:32;;;;;;;;;;;19.30;99.90;;;;;;5026368;28;19970;-80
2023/08/25 06:27:57;;;;;;;;;;;19.40;99.90;;;;;;5016682;28;19972;-79
2023/08/25 06:30:25;;;;;;;;;;;19.40;99.90;;;;;;5040476;28;19925;-79
2023/08/25 06:32:52;;;;;;;;;;;19.50;99.90;;;;;;5022934;28;20304;-79
2023/08/25 06:35:18;;;;;;;;;;;19.50;99.90;;;;;;5053646;28;19996;-80
2023/08/25 06:37:43;;;;;;;;;;;19.60;99.90;;;;;;5036969;28;21546;-79
2023/08/25 06:40:09;;;;;;;;;;;19.70;99.90;;;;;;5039685;28;19925;-79
2023/08/25 06:42:35;;;;;;;;;;;19.80;99.90;;;;;;5032522;28;19933;-79
2023/08/25 06:45:00;;;;;;;;;;;19.80;99.90;;;;;;5036023;28;19932;-79
2023/08/25 06:47:30;;;;;;;;;;;19.80;99.90;;;;;;5020981;28;19925;-79
2023/08/25 06:49:55;;;;;;;;;;;19.90;99.90;;;;;;5035927;28;20329;-79
2023/08/25 06:52:21;;;;;;;;;;;19.90;99.90;;;;;;5018565;28;19932;-79
2023/08/25 06:54:47;;;;;;;;;;;19.90;99.90;;;;;;5016513;28;20071;-79
2023/08/25 06:57:13;;;;;;;;;;;19.90;99.90;;;;;;5051656;28;20016;-79
2023/08/25 06:59:38;;;;;;;;;;;19.90;99.90;;;;;;5018428;28;19926;-80
2023/08/25 07:02:04;;;;;;;;;;;19.90;99.90;;;;;;5020112;28;19928;-81
2023/08/25 07:04:30;;;;;;;;;;;19.90;99.90;;;;;;5036887;28;19929;-78
2023/08/25 07:06:55;;;;;;;;;;;19.90;99.90;;;;;;5038410;28;20400;-80
2023/08/25 07:09:21;;;;;;;;;;;20.00;99.90;;;;;;5017445;28;19964;-79
2023/08/25 07:11:46;;;;;;;;;;;20.00;99.90;;;;;;5019825;28;19925;-80
2023/08/25 07:14:12;;;;;;;;;;;20.10;99.90;;;;;;5035409;28;19982;-79
2023/08/25 07:16:38;;;;;;;;;;;20.10;99.90;;;;;;5064266;28;19948;-80
2023/08/25 07:19:03;;;;;;;;;;;20.10;99.90;;;;;;5050307;28;19926;-80
2023/08/25 07:21:29;;;;;;;;;;;20.20;99.90;;;;;;5006847;28;19953;-79
2023/08/25 07:23:55;;;;;;;;;;;20.30;99.90;;;;;;5019677;28;19925;-79
2023/08/25 07:26:21;;;;;;;;;;;20.50;99.90;;;;;;5015553;28;19992;-80
2023/08/25 07:28:47;;;;;;;;;;;20.70;99.90;;;;;;5018362;28;19957;-79
2023/08/25 07:31:13;;;;;;;;;;;21.20;99.90;;;;;;5034575;28;19929;-80
2023/08/25 07:33:39;;;;;;;;;;;21.50;99.90;;;;;;5001319;28;19947;-80
2023/08/25 07:36:05;;;;;;;;;;;21.70;99.90;;;;;;5015944;28;19955;-80
2023/08/25 07:38:31;;;;;;;;;;;21.70;99.90;;;;;;5001384;28;19964;-80
2023/08/25 07:40:56;;;;;;;;;;;21.70;99.90;;;;;;5006236;28;19931;-80
2023/08/25 07:43:22;;;;;;;;;;;21.60;99.90;;;;;;5039024;28;19999;-79
2023/08/25 07:45:48;;;;;;;;;;;21.60;99.90;;;;;;5037264;28;19989;-79
2023/08/25 07:48:13;;;;;;;;;;;21.60;99.90;;;;;;5055944;28;20012;-79
2023/08/25 07:50:39;;;;;;;;;;;21.50;99.90;;;;;;5038275;28;20012;-79
2023/08/25 07:53:06;;;;;;;;;;;21.60;99.90;;;;;;5039128;28;19925;-79
2023/08/25 07:55:39;;;;;;;;;;;21.50;99.90;;;;;;5038645;28;19933;-79
2023/08/25 07:58:05;;;;;;;;;;;21.50;99.90;;;;;;5019088;28;19932;-79
2023/08/25 08:00:32;;;;;;;;;;;21.60;99.90;;;;;;5031095;28;19964;-79
2023/08/25 08:02:58;;;;;;;;;;;21.60;99.90;;;;;;5034399;28;19925;-79
2023/08/25 08:05:23;;;;;;;;;;;21.70;99.90;;;;;;4999071;28;19932;-78
2023/08/25 08:07:49;;;;;;;;;;;21.80;99.90;;;;;;5016778;28;19925;-79
2023/08/25 08:10:15;;;;;;;;;;;22.00;99.90;;;;;;5037341;28;19952;-78
2023/08/25 08:12:42;;;;;;;;;;;22.20;99.90;;;;;;5019331;28;20008;-79
2023/08/25 08:15:08;;;;;;;;;;;22.20;99.90;;;;;;5019603;28;19925;-79
2023/08/25 08:17:33;;;;;;;;;;;22.20;99.90;;;;;;5051629;28;20354;-79
2023/08/25 08:20:00;;;;;;;;;;;22.20;99.90;;;;;;5020618;28;19935;-79
2023/08/25 08:22:27;;;;;;;;;;;22.00;99.90;;;;;;5053804;28;19932;-79
2023/08/25 08:24:52;;;;;;;;;;;21.90;99.90;;;;;;5018314;28;19940;-79
2023/08/25 08:27:18;;;;;;;;;;;21.80;99.90;;;;;;5014628;28;19925;-88
2023/08/25 08:29:45;;;;;;;;;;;21.70;99.90;;;;;;5017025;28;19933;-88
2023/08/25 08:32:12;;;;;;;;;;;21.70;99.90;;;;;;5049111;28;19995;-88
2023/08/25 08:34:37;;;;;;;;;;;21.60;99.90;;;;;;5046245;28;19925;-88
2023/08/25 08:37:06;;;;;;;;;;;21.50;99.90;;;;;;5015967;28;20363;-88
2023/08/25 08:39:32;;;;;;;;;;;21.40;99.90;;;;;;5000744;28;19925;-88
2023/08/25 08:41:58;;;;;;;;;;;21.40;99.90;;;;;;5036793;28;20063;-88
2023/08/25 08:44:26;;;;;;;;;;;21.40;99.90;;;;;;5053178;28;19964;-87
2023/08/25 08:46:53;;;;;;;;;;;21.40;99.90;;;;;;5039406;28;19925;-88
2023/08/25 08:49:22;;;;;;;;;;;21.40;99.90;;;;;;5034650;28;20020;-89
2023/08/25 08:51:48;;;;;;;;;;;21.50;99.90;;;;;;5021178;28;19925;-89
2023/08/25 08:54:14;;;;;;;;;;;21.60;99.90;;;;;;5037446;28;19925;-89
2023/08/25 08:56:40;;;;;;;;;;;21.70;99.90;;;;;;5021798;28;20496;-88
2023/08/25 08:59:06;;;;;;;;;;;21.70;99.90;;;;;;5020011;28;19925;-88
2023/08/25 09:01:32;;;;;;;;;;;21.70;99.90;;;;;;5018220;28;19929;-88
2023/08/25 09:04:00;;;;;;;;;;;21.70;99.90;;;;;;5020664;28;19935;-89
2023/08/25 09:06:28;;;;;;;;;;;21.70;99.90;;;;;;5029426;28;20019;-88
2023/08/25 09:08:55;;;;;;;;;;;21.70;99.90;;;;;;5020834;28;19925;-88
2023/08/25 09:11:21;;;;;;;;;;;21.70;99.90;;;;;;5023085;28;19948;-88
2023/08/25 09:13:54;;;;;;;;;;;21.70;99.90;;;;;;5006502;28;19933;-89
2023/08/25 09:16:21;;;;;;;;;;;21.70;99.90;;;;;;5019882;28;19929;-88
2023/08/25 09:18:47;;;;;;;;;;;21.60;99.90;;;;;;5016063;28;20262;-88
2023/08/25 09:21:16;;;;;;;;;;;21.60;99.90;;;;;;5017199;28;19947;-88
2023/08/25 09:23:53;;;;;;;;;;;21.50;99.90;;;;;;5017940;28;19940;-88
2023/08/25 09:26:18;;;;;;;;;;;21.50;99.90;;;;;;5035720;28;19984;-88
2023/08/25 09:28:44;;;;;;;;;;;21.50;99.90;;;;;;5036649;28;19925;-88
2023/08/25 09:31:20;;;;;;;;;;;21.50;99.90;;;;;;5006417;28;19971;-88
2023/08/25 09:33:45;;;;;;;;;;;21.50;99.90;;;;;;5034943;28;19947;-89
2023/08/25 09:36:11;;;;;;;;;;;21.50;99.90;;;;;;5019668;28;19992;-89
2023/08/25 09:38:42;;;;;;;;;;;21.40;99.90;;;;;;5034760;28;20368;-89
2023/08/25 09:41:09;;;;;;;;;;;21.50;99.90;;;;;;5018649;28;19925;-89
2023/08/25 09:43:35;;;;;;;;;;;21.50;99.90;;;;;;5019476;28;19925;-89
2023/08/25 09:46:01;;;;;;;;;;;21.50;99.90;;;;;;5036552;28;19975;-89
2023/08/25 09:48:32;;;;;;;;;;;21.50;99.90;;;;;;5052652;28;19937;-89
2023/08/25 09:50:57;;;;;;;;;;;21.50;99.90;;;;;;5027318;28;19925;-88
2023/08/25 09:53:23;;;;;;;;;;;21.60;99.90;;;;;;5023186;28;19935;-89
2023/08/25 09:55:50;;;;;;;;;;;21.70;99.90;;;;;;5024208;28;19957;-89
2023/08/25 09:58:15;;;;;;;;;;;21.70;99.90;;;;;;5023812;28;20433;-89
2023/08/25 10:00:42;;;;;;;;;;;21.70;99.90;;;;;;5040055;28;19925;-89
2023/08/25 10:03:11;;;;;;;;;;;21.70;99.90;;;;;;5038712;28;19929;-89
2023/08/25 10:05:37;;;;;;;;;;;21.60;99.90;;;;;;5031965;28;20059;-89
2023/08/25 10:08:03;;;;;;;;;;;21.80;99.90;;;;;;5023757;28;19929;-89
2023/08/25 10:10:31;;;;;;;;;;;22.00;99.90;;;;;;5033983;28;19933;-89
2023/08/25 10:12:57;;;;;;;;;;;22.20;99.90;;;;;;5021939;28;19929;-90
2023/08/25 10:15:27;;;;;;;;;;;22.50;99.90;;;;;;5006046;28;20121;-90
2023/08/25 10:17:53;;;;;;;;;;;22.70;99.90;;;;;;5037521;28;19979;-89
2023/08/25 10:20:22;;;;;;;;;;;22.90;99.90;;;;;;5007471;28;19931;-89
2023/08/25 10:22:49;;;;;;;;;;;23.30;99.90;;;;;;5055770;28;19929;-88
2023/08/25 10:25:15;;;;;;;;;;;23.50;99.90;;;;;;4994319;28;19964;-90
2023/08/25 10:27:41;;;;;;;;;;;23.60;99.90;;;;;;5035527;28;19933;-89
2023/08/25 10:30:07;;;;;;;;;;;23.80;99.90;;;;;;5036786;28;19925;-89
2023/08/25 10:32:48;;;;;;;;;;;24.00;99.90;;;;;;5038343;28;19944;-89
2023/08/25 10:35:14;;;;;;;;;;;24.00;99.90;;;;;;5053956;28;19925;-90
2023/08/25 10:37:40;;;;;;;;;;;24.00;99.90;;;;;;5026436;28;20373;-90
2023/08/25 10:40:12;;;;;;;;;;;23.90;99.90;;;;;;5037996;28;19931;-90
2023/08/25 10:42:38;;;;;;;;;;;23.80;99.90;;;;;;5017896;28;19975;-90
2023/08/25 10:45:04;;;;;;;;;;;23.60;99.90;;;;;;5038372;28;20300;-90
2023/08/25 10:47:30;;;;;;;;;;;23.40;99.90;;;;;;5045671;28;19951;-90
2023/08/25 10:50:00;;;;;;;;;;;23.20;99.90;;;;;;5023448;28;20399;-90
2023/08/25 10:52:26;;;;;;;;;;;22.90;99.90;;;;;;5022131;28;19925;-90
2023/08/25 10:54:53;;;;;;;;;;;22.80;99.90;;;;;;5036571;28;19939;-89
2023/08/25 10:57:25;;;;;;;;;;;22.60;99.90;;;;;;5025418;28;20016;-89
2023/08/25 10:59:54;;;;;;;;;;;22.40;99.90;;;;;;5055229;28;19948;-88
2023/08/25 11:02:38;;;;;;;;;;;22.40;99.90;;;;;;5035022;28;19968;-88
2023/08/25 11:05:23;;;;;;;;;;;22.40;99.90;;;;;;5020173;28;19925;-88
2023/08/25 11:07:48;;;;;;;;;;;22.30;99.90;;;;;;5046515;28;19929;-89
2023/08/25 11:10:14;;;;;;;;;;;22.30;99.90;;;;;;5035322;28;19933;-90
2023/08/25 11:12:40;;;;;;;;;;;22.30;99.90;;;;;;5020409;28;19926;-90
2023/08/25 11:15:10;;;;;;;;;;;22.30;99.90;;;;;;5020827;28;20051;-91
2023/08/25 11:17:36;;;;;;;;;;;22.30;99.90;;;;;;5021726;28;20302;-89
2023/08/25 11:20:01;;;;;;;;;;;22.30;99.90;;;;;;5006368;28;19935;-91
2023/08/25 11:22:27;;;;;;;;;;;22.40;99.90;;;;;;5006210;28;19992;-90
2023/08/25 11:24:52;;;;;;;;;;;22.50;99.90;;;;;;5038293;28;19984;-90
2023/08/25 11:27:22;;;;;;;;;;;22.60;99.90;;;;;;5026041;28;20496;-91
2023/08/25 11:29:49;;;;;;;;;;;22.60;99.90;;;;;;5022716;28;19925;-91
2023/08/25 11:32:15;;;;;;;;;;;22.60;99.90;;;;;;5005026;28;19925;-89
2023/08/25 11:34:48;;;;;;;;;;;22.70;99.90;;;;;;5023900;28;19960;-89
2023/08/25 11:37:14;;;;;;;;;;;22.80;99.90;;;;;;5003721;28;19976;-89
2023/08/25 11:39:43;;;;;;;;;;;22.80;99.90;;;;;;5017939;28;19925;-90
2023/08/25 11:42:09;;;;;;;;;;;22.90;99.90;;;;;;5019785;28;19932;-89
2023/08/25 11:44:38;;;;;;;;;;;22.90;99.90;;;;;;5038240;28;19925;-89
2023/08/25 11:47:04;;;;;;;;;;;22.80;99.90;;;;;;5021471;28;19964;-89
2023/08/25 11:49:29;;;;;;;;;;;22.80;99.90;;;;;;5037429;28;19929;-89
2023/08/25 11:51:55;;;;;;;;;;;22.70;99.90;;;;;;5029129;28;20471;-89
2023/08/25 11:54:20;;;;;;;;;;;22.60;99.90;;;;;;5017410;28;19925;-89
2023/08/25 11:56:50;;;;;;;;;;;22.50;99.90;;;;;;4998095;28;19933;-89
2023/08/25 11:59:17;;;;;;;;;;;22.50;99.90;;;;;;5020037;28;19940;-80
2023/08/25 12:01:43;;;;;;;;;;;22.40;99.90;;;;;;5020939;28;19933;-79
2023/08/25 12:04:22;;;;;;;;;;;22.30;99.90;;;;;;5021135;28;19932;-79
2023/08/25 12:06:50;;;;;;;;;;;22.30;99.90;;;;;;5038819;28;19988;-80
2023/08/25 12:09:15;;;;;;;;;;;22.10;99.90;;;;;;5022205;28;19940;-79
2023/08/25 12:11:41;;;;;;;;;;;22.00;99.90;;;;;;5052471;28;19929;-80
2023/08/25 12:14:07;;;;;;;;;;;21.90;99.90;;;;;;5038276;28;19948;-80
2023/08/25 12:16:32;;;;;;;;;;;21.80;99.90;;;;;;5005185;28;19929;-80
2023/08/25 12:19:03;;;;;;;;;;;21.80;99.90;;;;;;5038840;28;19996;-80
2023/08/25 12:21:34;;;;;;;;;;;21.80;99.90;;;;;;5021888;28;20011;-80
2023/08/25 12:24:00;;;;;;;;;;;21.80;99.90;;;;;;5070360;28;19952;-79
2023/08/25 12:26:26;;;;;;;;;;;21.80;99.90;;;;;;5038709;28;19947;-80
2023/08/25 12:28:52;;;;;;;;;;;21.80;99.90;;;;;;5071420;28;19933;-80
2023/08/25 12:31:18;;;;;;;;;;;21.90;99.90;;;;;;5038209;28;19933;-79
2023/08/25 12:33:44;;;;;;;;;;;22.00;99.90;;;;;;5051108;28;19932;-80
2023/08/25 12:36:10;;;;;;;;;;;21.90;99.90;;;;;;5071512;28;20388;-79
2023/08/25 12:38:36;;;;;;;;;;;21.80;99.90;;;;;;5025819;28;19925;-80
2023/08/25 12:41:01;;;;;;;;;;;21.70;99.90;;;;;;5037051;28;19947;-79
2023/08/25 12:43:28;;;;;;;;;;;21.60;99.90;;;;;;5036192;28;20352;-79
2023/08/25 12:45:53;;;;;;;;;;;21.50;99.90;;;;;;5054445;28;19929;-79
2023/08/25 12:48:19;;;;;;;;;;;21.30;99.90;;;;;;5036220;28;19951;-79
2023/08/25 12:50:45;;;;;;;;;;;21.20;99.90;;;;;;5038014;28;19932;-79
2023/08/25 12:53:10;;;;;;;;;;;21.10;99.90;;;;;;5038222;28;20431;-79
2023/08/25 12:55:36;;;;;;;;;;;21.10;99.90;;;;;;5054473;28;19932;-79
2023/08/25 12:58:02;;;;;;;;;;;21.00;99.90;;;;;;5021185;28;19925;-79
2023/08/25 13:00:28;;;;;;;;;;;20.90;99.90;;;;;;5037738;28;19925;-79
2023/08/25 13:02:53;;;;;;;;;;;20.90;99.90;;;;;;5014584;28;19925;-79
2023/08/25 13:05:19;;;;;;;;;;;20.80;99.90;;;;;;5006171;28;19968;-80
2023/08/25 13:07:45;;;;;;;;;;;20.80;99.90;;;;;;5027700;28;19925;-87
2023/08/25 13:10:10;;;;;;;;;;;20.70;99.90;;;;;;5052307;28;19933;-88
2023/08/25 13:12:36;;;;;;;;;;;20.70;99.90;;;;;;5022372;28;20016;-88
2023/08/25 13:15:12;;;;;;;;;;;20.80;99.90;;;;;;5040909;28;20402;-88
2023/08/25 13:17:37;;;;;;;;;;;20.80;99.90;;;;;;5031372;28;19932;-88
2023/08/25 13:20:03;;;;;;;;;;;20.80;99.90;;;;;;5041208;28;19929;-89
2023/08/25 13:22:28;;;;;;;;;;;20.80;99.90;;;;;;5030726;28;20035;-89
2023/08/25 13:24:55;;;;;;;;;;;20.80;99.90;;;;;;5060943;28;19932;-90
2023/08/25 13:27:21;;;;;;;;;;;20.80;99.90;;;;;;5029173;28;19964;-89
2023/08/25 13:29:47;;;;;;;;;;;20.80;99.90;;;;;;5023471;28;19925;-90
2023/08/25 13:32:12;;;;;;;;;;;20.90;99.90;;;;;;5008512;28;19933;-88
2023/08/25 13:34:38;;;;;;;;;;;20.90;99.90;;;;;;5042276;28;19929;-89
2023/08/25 13:37:04;;;;;;;;;;;20.90;99.90;;;;;;5058219;28;19925;-88
2023/08/25 13:39:29;;;;;;;;;;;20.90;99.90;;;;;;5042417;28;19925;-89
2023/08/25 13:41:55;;;;;;;;;;;20.90;99.90;;;;;;5043433;28;19929;-90
2023/08/25 13:44:21;;;;;;;;;;;20.80;99.90;;;;;;5054048;28;19925;-88
2023/08/25 13:46:47;;;;;;;;;;;20.90;99.90;;;;;;5040370;28;19947;-89
2023/08/25 13:49:12;;;;;;;;;;;20.90;99.90;;;;;;5011597;28;19929;-92
2023/08/25 13:51:38;;;;;;;;;;;21.00;99.90;;;;;;5046427;28;19921;-85
2023/08/25 13:54:03;;;;;;;;;;;21.00;99.90;;;;;;5009519;28;19976;-92
2023/08/25 13:56:29;;;;;;;;;;;21.10;99.90;;;;;;5006097;28;19929;-90
2023/08/25 13:58:55;;;;;;;;;;;21.10;99.90;;;;;;5019013;28;20430;-90
2023/08/25 14:01:21;;;;;;;;;;;21.20;99.90;;;;;;5054319;28;19929;-90
2023/08/25 14:03:46;;;;;;;;;;;21.30;99.90;;;;;;5038361;28;19929;-91
2023/08/25 14:06:13;;;;;;;;;;;21.50;99.90;;;;;;5015874;28;19948;-90
2023/08/25 14:08:39;;;;;;;;;;;21.80;99.90;;;;;;5038917;28;19925;-90
2023/08/25 14:11:07;;;;;;;;;;;22.00;99.90;;;;;;5052387;28;20026;-91
2023/08/25 14:13:33;;;;;;;;;;;22.10;99.90;;;;;;5021743;28;19937;-90